createdAt,value
2024-01-16T00:00:04.874Z,72.3
2024-01-16T00:01:09.223Z,72.4
2024-01-16T00:02:16.381Z,72.4
2024-01-16T00:03:17.724Z,72.4
2024-01-16T00:04:18.999Z,72.4
2024-01-16T00:05:20.305Z,72.4
2024-01-16T00:06:24.717Z,72.4
2024-01-16T00:07:31.276Z,72.4
2024-01-16T00:08:35.578Z,72.5
2024-01-16T00:09:37.032Z,72.5
2024-01-16T00:10:38.276Z,72.5
2024-01-16T00:12:51.278Z,72.5
2024-01-16T00:13:55.594Z,72.5
2024-01-16T00:14:59.840Z,72.5
2024-01-16T00:16:03.731Z,72.5
2024-01-16T00:17:10.479Z,72.5
2024-01-16T00:18:12.514Z,72.5
2024-01-16T00:19:14.484Z,72.5
2024-01-16T00:20:15.749Z,72.5
2024-01-16T00:21:16.926Z,72.5
2024-01-16T00:22:18.172Z,72.5
2024-01-16T00:24:38.350Z,72.5
2024-01-16T00:25:40.553Z,72.5
2024-01-16T00:26:42.054Z,72.5
2024-01-16T00:27:45.480Z,72.5
2024-01-16T00:29:13.056Z,72.5
2024-01-16T00:30:35.350Z,72.5
2024-01-16T00:31:39.411Z,72.5
2024-01-16T00:32:40.936Z,72.5
2024-01-16T00:33:42.312Z,72.6
2024-01-16T00:34:45.934Z,72.5
2024-01-16T00:35:50.310Z,72.6
2024-01-16T00:36:58.801Z,72.6
2024-01-16T00:38:05.558Z,72.6
2024-01-16T00:39:06.816Z,72.6
2024-01-16T00:40:08.044Z,72.6
2024-01-16T00:41:12.276Z,72.6
2024-01-16T00:42:13.441Z,72.6
2024-01-16T00:43:17.354Z,72.6
2024-01-16T00:44:18.650Z,72.5
2024-01-16T00:45:22.794Z,72.6
2024-01-16T00:46:26.172Z,72.5
2024-01-16T00:47:30.767Z,72.5
2024-01-16T00:48:35.390Z,72.6
2024-01-16T00:49:36.863Z,72.5
2024-01-16T00:50:40.988Z,72.6
2024-01-16T00:51:44.722Z,72.5
2024-01-16T00:52:45.864Z,72.6
2024-01-16T00:53:50.361Z,72.6
2024-01-16T00:54:56.365Z,72.6
2024-01-16T00:55:57.630Z,72.6
2024-01-16T00:56:58.882Z,72.6
2024-01-16T00:58:03.004Z,72.6
2024-01-16T00:59:07.297Z,72.6
2024-01-16T01:00:08.598Z,72.6
2024-01-16T01:01:12.824Z,72.5
2024-01-16T01:03:22.964Z,72.5
2024-01-16T01:04:24.155Z,72.5
2024-01-16T01:05:25.569Z,72.5
2024-01-16T01:06:29.933Z,72.5
2024-01-16T01:07:36.508Z,72.6
2024-01-16T01:08:37.915Z,72.6
2024-01-16T01:09:39.151Z,72.6
2024-01-16T01:10:49.047Z,72.6
2024-01-16T01:11:55.634Z,72.6
2024-01-16T01:12:56.887Z,72.6
2024-01-16T01:14:09.126Z,72.5
2024-01-16T01:15:10.578Z,72.5
2024-01-16T01:16:11.852Z,72.5
2024-01-16T01:17:16.106Z,72.5
2024-01-16T01:18:21.093Z,72.5
2024-01-16T01:19:34.604Z,72.5
2024-01-16T01:20:38.757Z,72.5
2024-01-16T01:21:42.521Z,72.5
2024-01-16T01:22:46.738Z,72.5
2024-01-16T01:24:08.764Z,72.5
2024-01-16T01:25:13.020Z,72.5
2024-01-16T01:26:17.074Z,72.5
2024-01-16T01:27:23.672Z,72.5
2024-01-16T01:28:29.701Z,72.5
2024-01-16T01:30:09.391Z,72.5
2024-01-16T01:31:14.194Z,72.4
2024-01-16T01:32:15.484Z,72.4
2024-01-16T01:34:00.672Z,72.4
2024-01-16T01:35:06.861Z,72.4
2024-01-16T01:36:13.411Z,72.4
2024-01-16T01:37:26.662Z,72.3
2024-01-16T01:38:41.641Z,72.3
2024-01-16T01:39:42.859Z,72.3
2024-01-16T01:40:51.101Z,72.3
2024-01-16T01:41:55.128Z,72.3
2024-01-16T01:43:09.653Z,72.2
2024-01-16T01:44:13.727Z,72.3
2024-01-16T01:45:19.782Z,72.2
2024-01-16T01:47:11.295Z,72.2
2024-01-16T01:48:22.643Z,72.2
2024-01-16T01:49:38.758Z,72.2
2024-01-16T01:51:59.031Z,72.2
2024-01-16T01:53:02.414Z,72.2
2024-01-16T01:54:04.440Z,72.2
2024-01-16T01:55:23.470Z,72.1
2024-01-16T01:56:27.085Z,72.1
2024-01-16T01:57:43.058Z,72.1
2024-01-16T01:58:48.582Z,72.1
2024-01-16T02:00:05.680Z,72.1
2024-01-16T02:01:09.814Z,72.1
2024-01-16T02:02:15.984Z,72.1
2024-01-16T02:03:22.138Z,72.1
2024-01-16T02:04:24.371Z,72.1
2024-01-16T02:05:28.079Z,72.1
2024-01-16T02:06:34.886Z,72.1
2024-01-16T02:07:47.741Z,72
2024-01-16T02:08:51.898Z,72
2024-01-16T02:10:09.277Z,72
2024-01-16T02:11:10.566Z,72
2024-01-16T02:12:25.718Z,72
2024-01-16T02:13:32.401Z,72
2024-01-16T02:14:41.691Z,72
2024-01-16T02:15:42.991Z,72
2024-01-16T02:16:44.249Z,72
2024-01-16T02:18:58.600Z,72
2024-01-16T02:19:59.774Z,72
2024-01-16T02:21:06.793Z,72
2024-01-16T02:22:10.854Z,72
2024-01-16T02:23:14.809Z,72
2024-01-16T02:25:27.277Z,72
2024-01-16T02:26:31.733Z,72
2024-01-16T02:27:41.923Z,72
2024-01-16T02:28:52.002Z,72
2024-01-16T02:29:56.186Z,72
2024-01-16T02:30:57.567Z,71.9
2024-01-16T02:33:07.739Z,71.9
2024-01-16T02:34:09.415Z,71.9
2024-01-16T02:35:10.818Z,71.9
2024-01-16T02:36:14.831Z,71.9
2024-01-16T02:37:16.036Z,71.9
2024-01-16T02:39:31.421Z,71.9
2024-01-16T02:40:35.319Z,71.9
2024-01-16T02:41:39.819Z,71.9
2024-01-16T02:42:45.939Z,71.9
2024-01-16T02:43:52.732Z,71.9
2024-01-16T02:44:56.980Z,71.9
2024-01-16T02:46:01.178Z,71.8
2024-01-16T02:47:05.457Z,71.8
2024-01-16T02:48:14.450Z,71.8
2024-01-16T02:49:15.733Z,71.8
2024-01-16T02:50:19.131Z,71.8
2024-01-16T02:51:20.329Z,71.8
2024-01-16T02:52:24.468Z,71.8
2024-01-16T02:53:30.650Z,71.8
2024-01-16T02:54:31.836Z,71.8
2024-01-16T02:55:33.048Z,71.8
2024-01-16T02:56:34.365Z,71.8
2024-01-16T02:57:35.560Z,71.8
2024-01-16T02:58:36.752Z,71.8
2024-01-16T02:59:47.103Z,71.8
2024-01-16T03:00:48.441Z,71.8
2024-01-16T03:02:03.286Z,71.8
2024-01-16T03:03:09.441Z,71.8
2024-01-16T03:04:10.690Z,71.8
2024-01-16T03:05:15.212Z,71.9
2024-01-16T03:06:24.872Z,71.8
2024-01-16T03:07:28.863Z,71.8
2024-01-16T03:10:03.374Z,71.8
2024-01-16T03:11:07.858Z,71.9
2024-01-16T03:12:14.701Z,71.9
2024-01-16T03:15:35.929Z,71.9
2024-01-16T03:17:51.918Z,71.9
2024-01-16T03:19:04.520Z,71.9
2024-01-16T03:20:26.866Z,72
2024-01-16T03:21:32.966Z,72
2024-01-16T03:22:40.033Z,72
2024-01-16T03:23:43.645Z,72
2024-01-16T03:24:50.276Z,72
2024-01-16T03:26:04.160Z,72
2024-01-16T03:27:16.967Z,72
2024-01-16T03:29:26.668Z,72
2024-01-16T03:30:40.219Z,72
2024-01-16T03:31:44.543Z,72.1
2024-01-16T03:32:51.800Z,72
2024-01-16T03:33:55.473Z,72
2024-01-16T03:35:07.178Z,72
2024-01-16T03:36:11.286Z,72.1
2024-01-16T03:37:15.451Z,72.1
2024-01-16T03:39:01.679Z,72.1
2024-01-16T03:40:08.851Z,72.1
2024-01-16T03:41:13.104Z,72.1
2024-01-16T03:42:17.269Z,72
2024-01-16T03:43:18.499Z,72
2024-01-16T03:44:24.337Z,72
2024-01-16T03:45:38.717Z,72
2024-01-16T03:46:42.620Z,72
2024-01-16T03:47:44.265Z,72
2024-01-16T03:48:57.707Z,72
2024-01-16T03:50:19.982Z,72
2024-01-16T03:51:26.813Z,72
2024-01-16T03:52:40.198Z,72
2024-01-16T03:53:41.637Z,72
2024-01-16T03:54:48.503Z,72.1
2024-01-16T03:55:58.796Z,72.1
2024-01-16T03:57:05.181Z,72.1
2024-01-16T03:58:06.371Z,72.1
2024-01-16T03:59:14.830Z,72.2
2024-01-16T04:00:21.486Z,72.2
2024-01-16T04:01:25.629Z,72.2
2024-01-16T04:02:34.885Z,72.2
2024-01-16T04:03:46.131Z,72.3
2024-01-16T04:04:47.298Z,72.3
2024-01-16T04:05:51.658Z,72.3
2024-01-16T04:06:55.666Z,72.3
2024-01-16T04:08:03.984Z,72.4
2024-01-16T04:09:10.350Z,72.4
2024-01-16T04:10:14.330Z,72.4
2024-01-16T04:11:21.043Z,72.4
2024-01-16T04:12:22.230Z,72.4
2024-01-16T04:13:23.486Z,72.5
2024-01-16T04:14:24.705Z,72.5
2024-01-16T04:15:46.097Z,72.5
2024-01-16T04:16:52.085Z,72.5
2024-01-16T04:18:06.737Z,72.5
2024-01-16T04:19:15.542Z,72.4
2024-01-16T04:20:57.190Z,72.4
2024-01-16T04:21:58.405Z,72.4
2024-01-16T04:23:02.353Z,72.4
2024-01-16T04:24:08.521Z,72.3
2024-01-16T04:25:18.752Z,72.3
2024-01-16T04:26:37.099Z,72.3
2024-01-16T04:27:40.831Z,72.2
2024-01-16T04:28:47.982Z,72.2
2024-01-16T04:29:58.141Z,72.1
2024-01-16T04:31:04.545Z,72.1
2024-01-16T04:32:08.637Z,72.1
2024-01-16T04:33:33.803Z,72
2024-01-16T04:34:35.261Z,72
2024-01-16T04:35:42.617Z,72
2024-01-16T04:36:53.938Z,71.9
2024-01-16T04:38:00.140Z,71.9
2024-01-16T04:39:02.197Z,71.9
2024-01-16T04:40:03.416Z,71.9
2024-01-16T04:41:30.926Z,71.9
2024-01-16T04:42:32.161Z,71.8
2024-01-16T04:43:33.373Z,71.8
2024-01-16T04:44:37.562Z,71.8
2024-01-16T04:46:47.461Z,71.8
2024-01-16T04:47:51.055Z,71.8
2024-01-16T04:48:52.560Z,71.7
2024-01-16T04:49:56.539Z,71.7
2024-01-16T04:51:00.531Z,71.7
2024-01-16T04:52:04.640Z,71.7
2024-01-16T04:53:05.870Z,71.7
2024-01-16T04:54:07.031Z,71.7
2024-01-16T04:55:08.320Z,71.7
2024-01-16T04:56:14.660Z,71.7
2024-01-16T04:57:16.550Z,71.7
2024-01-16T04:58:20.090Z,71.7
2024-01-16T04:59:21.339Z,71.7
2024-01-16T05:00:22.553Z,71.7
2024-01-16T05:01:26.340Z,71.7
2024-01-16T05:02:27.596Z,71.6
2024-01-16T05:03:32.024Z,71.6
2024-01-16T05:04:33.379Z,71.6
2024-01-16T05:05:35.077Z,71.6
2024-01-16T05:06:36.802Z,71.6
2024-01-16T05:07:38.198Z,71.6
2024-01-16T05:08:39.565Z,71.6
2024-01-16T05:09:43.364Z,71.6
2024-01-16T05:10:46.570Z,71.6
2024-01-16T05:11:50.645Z,71.6
2024-01-16T05:12:57.489Z,71.6
2024-01-16T05:15:04.781Z,71.6
2024-01-16T05:16:08.914Z,71.6
2024-01-16T05:17:12.824Z,71.5
2024-01-16T05:18:14.543Z,71.5
2024-01-16T05:19:18.644Z,71.5
2024-01-16T05:20:20.044Z,71.5
2024-01-16T05:21:21.206Z,71.5
2024-01-16T05:22:22.357Z,71.5
2024-01-16T05:23:26.662Z,71.5
2024-01-16T05:24:27.907Z,71.5
2024-01-16T05:25:29.062Z,71.5
2024-01-16T05:26:30.306Z,71.5
2024-01-16T05:27:40.527Z,71.5
2024-01-16T05:28:43.897Z,71.5
2024-01-16T05:29:45.870Z,71.5
2024-01-16T05:30:47.155Z,71.5
2024-01-16T05:31:51.056Z,71.5
2024-01-16T05:32:54.960Z,71.5
2024-01-16T05:33:56.338Z,71.5
2024-01-16T05:35:00.361Z,71.5
2024-01-16T05:36:04.866Z,71.5
2024-01-16T05:37:06.104Z,71.5
2024-01-16T05:38:07.397Z,71.5
2024-01-16T05:39:10.701Z,71.5
2024-01-16T05:40:12.384Z,71.5
2024-01-16T05:41:13.560Z,71.5
2024-01-16T05:42:17.427Z,71.5
2024-01-16T05:43:18.569Z,71.5
2024-01-16T05:44:32.905Z,71.5
2024-01-16T05:45:34.159Z,71.5
2024-01-16T05:46:35.586Z,71.5
2024-01-16T05:47:42.308Z,71.5
2024-01-16T05:48:43.775Z,71.5
2024-01-16T05:49:48.166Z,71.5
2024-01-16T05:50:49.834Z,71.5
2024-01-16T05:51:51.154Z,71.5
2024-01-16T05:52:52.346Z,71.5
2024-01-16T05:53:56.707Z,71.5
2024-01-16T05:54:57.910Z,71.5
2024-01-16T05:55:59.270Z,71.5
2024-01-16T05:57:00.690Z,71.5
2024-01-16T05:58:01.846Z,71.4
2024-01-16T05:59:03.038Z,71.4
2024-01-16T06:00:06.929Z,71.4
2024-01-16T06:01:08.223Z,71.4
2024-01-16T06:02:09.533Z,71.4
2024-01-16T06:03:10.784Z,71.4
2024-01-16T06:04:15.504Z,71.4
2024-01-16T06:05:16.892Z,71.4
2024-01-16T06:06:18.395Z,71.4
2024-01-16T06:07:19.633Z,71.4
2024-01-16T06:08:23.173Z,71.4
2024-01-16T06:09:29.249Z,71.4
2024-01-16T06:10:31.238Z,71.4
2024-01-16T06:11:32.559Z,71.3
2024-01-16T06:12:36.920Z,71.3
2024-01-16T06:13:40.995Z,71.3
2024-01-16T06:14:44.525Z,71.3
2024-01-16T06:15:45.682Z,71.3
2024-01-16T06:16:46.849Z,71.3
2024-01-16T06:17:48.360Z,71.3
2024-01-16T06:18:49.790Z,71.2
2024-01-16T06:19:50.945Z,71.2
2024-01-16T06:20:52.457Z,71.2
2024-01-16T06:21:53.646Z,71.2
2024-01-16T06:22:54.816Z,71.2
2024-01-16T06:23:56.123Z,71.2
2024-01-16T06:24:57.358Z,71.1
2024-01-16T06:25:58.567Z,71.1
2024-01-16T06:26:59.920Z,71.1
2024-01-16T06:28:04.903Z,71.1
2024-01-16T06:29:17.330Z,71
2024-01-16T06:30:25.936Z,71
2024-01-16T06:31:27.427Z,71
2024-01-16T06:32:28.896Z,71
2024-01-16T06:33:30.464Z,71
2024-01-16T06:34:32.104Z,71
2024-01-16T06:35:33.356Z,71
2024-01-16T06:36:34.503Z,71
2024-01-16T06:37:35.671Z,71
2024-01-16T06:38:36.896Z,71
2024-01-16T06:39:38.105Z,71
2024-01-16T06:40:39.263Z,71
2024-01-16T06:41:40.517Z,71
2024-01-16T06:42:41.690Z,71
2024-01-16T06:43:42.912Z,71
2024-01-16T06:44:44.080Z,71
2024-01-16T06:45:45.236Z,71.1
2024-01-16T06:46:46.456Z,71.1
2024-01-16T06:47:52.720Z,71.1
2024-01-16T06:48:54.018Z,71
2024-01-16T06:49:55.226Z,71.1
2024-01-16T06:50:56.623Z,71.1
2024-01-16T06:51:57.770Z,71.1
2024-01-16T06:52:58.936Z,71.1
2024-01-16T06:54:00.413Z,71.1
2024-01-16T06:55:01.623Z,71
2024-01-16T06:56:02.788Z,71
2024-01-16T06:57:03.962Z,71
2024-01-16T06:58:05.151Z,71
2024-01-16T06:59:12.500Z,71
2024-01-16T07:00:13.673Z,71
2024-01-16T07:01:15.398Z,71
2024-01-16T07:02:16.563Z,71
2024-01-16T07:03:17.712Z,71
2024-01-16T07:04:19.041Z,71
2024-01-16T07:05:20.429Z,71
2024-01-16T07:06:21.991Z,71
2024-01-16T07:07:23.153Z,70.9
2024-01-16T07:08:24.389Z,70.9
2024-01-16T07:09:25.552Z,70.9
2024-01-16T07:10:26.725Z,70.9
2024-01-16T07:11:27.913Z,70.9
2024-01-16T07:12:29.070Z,70.9
2024-01-16T07:13:30.257Z,70.9
2024-01-16T07:14:31.470Z,70.9
2024-01-16T07:15:32.629Z,70.9
2024-01-16T07:16:33.994Z,70.9
2024-01-16T07:17:35.286Z,70.9
2024-01-16T07:18:36.688Z,70.9
2024-01-16T07:19:38.009Z,70.9
2024-01-16T07:20:39.252Z,70.9
2024-01-16T07:21:40.428Z,70.9
2024-01-16T07:22:41.592Z,70.9
2024-01-16T07:23:42.845Z,70.9
2024-01-16T07:24:44.007Z,70.8
2024-01-16T07:25:45.192Z,70.8
2024-01-16T07:26:46.445Z,70.8
2024-01-16T07:27:47.621Z,70.8
2024-01-16T07:28:48.799Z,70.8
2024-01-16T07:29:50.125Z,70.8
2024-01-16T07:30:51.455Z,70.8
2024-01-16T07:31:52.613Z,70.8
2024-01-16T07:32:54.075Z,70.8
2024-01-16T07:33:56.033Z,70.8
2024-01-16T07:34:57.245Z,70.8
2024-01-16T07:35:58.588Z,70.8
2024-01-16T07:36:59.731Z,70.8
2024-01-16T07:38:06.045Z,70.8
2024-01-16T07:39:07.200Z,70.8
2024-01-16T07:40:08.370Z,70.8
2024-01-16T07:41:09.676Z,70.8
2024-01-16T07:42:10.821Z,70.8
2024-01-16T07:43:11.999Z,70.8
2024-01-16T07:44:13.268Z,70.8
2024-01-16T07:45:14.436Z,70.8
2024-01-16T07:46:15.706Z,70.8
2024-01-16T07:47:17.019Z,70.8
2024-01-16T07:48:18.497Z,70.8
2024-01-16T07:49:19.776Z,70.8
2024-01-16T07:50:20.959Z,70.8
2024-01-16T07:51:22.133Z,70.8
2024-01-16T07:52:23.289Z,70.8
2024-01-16T07:53:24.527Z,70.8
2024-01-16T07:54:25.669Z,70.8
2024-01-16T07:55:26.837Z,70.8
2024-01-16T07:56:28.108Z,70.8
2024-01-16T07:57:29.287Z,70.8
2024-01-16T07:58:30.441Z,70.8
2024-01-16T07:59:31.825Z,70.7
2024-01-16T08:00:33.085Z,70.7
2024-01-16T08:01:34.301Z,70.7
2024-01-16T08:02:35.956Z,70.7
2024-01-16T08:03:37.202Z,70.7
2024-01-16T08:04:38.352Z,70.7
2024-01-16T08:05:40.063Z,70.7
2024-01-16T08:06:41.810Z,70.6
2024-01-16T08:07:43.067Z,70.6
2024-01-16T08:08:44.299Z,70.6
2024-01-16T08:09:45.522Z,70.6
2024-01-16T08:10:46.721Z,70.6
2024-01-16T08:11:48.193Z,70.5
2024-01-16T08:12:49.391Z,70.5
2024-01-16T08:13:50.554Z,70.5
2024-01-16T08:14:51.997Z,70.4
2024-01-16T08:15:53.222Z,70.4
2024-01-16T08:16:54.428Z,70.3
2024-01-16T08:17:55.959Z,70.3
2024-01-16T08:18:57.368Z,70.3
2024-01-16T08:19:58.641Z,70.3
2024-01-16T08:20:59.892Z,70.2
2024-01-16T08:22:01.035Z,70.2
2024-01-16T08:23:02.198Z,70.2
2024-01-16T08:24:03.365Z,70.1
2024-01-16T08:25:04.543Z,70.1
2024-01-16T08:26:05.714Z,70
2024-01-16T08:27:06.852Z,70
2024-01-16T08:28:08.024Z,69.9
2024-01-16T08:29:09.269Z,69.9
2024-01-16T08:30:10.544Z,69.8
2024-01-16T08:31:11.743Z,69.8
2024-01-16T08:32:12.984Z,69.7
2024-01-16T08:33:14.622Z,69.7
2024-01-16T08:34:16.346Z,69.6
2024-01-16T08:35:17.944Z,69.6
2024-01-16T08:36:19.360Z,69.6
2024-01-16T08:37:23.431Z,69.6
2024-01-16T08:38:24.612Z,69.6
2024-01-16T08:39:25.772Z,69.6
2024-01-16T08:40:27.021Z,69.6
2024-01-16T08:41:28.204Z,69.6
2024-01-16T08:42:29.352Z,69.5
2024-01-16T08:43:30.527Z,69.5
2024-01-16T08:44:31.873Z,69.5
2024-01-16T08:45:33.138Z,69.5
2024-01-16T08:46:34.280Z,69.4
2024-01-16T08:47:35.948Z,69.4
2024-01-16T08:48:37.708Z,69.3
2024-01-16T08:49:39.315Z,69.3
2024-01-16T08:50:40.603Z,69.2
2024-01-16T08:51:41.770Z,69.2
2024-01-16T08:52:42.997Z,69.1
2024-01-16T08:53:44.520Z,69.1
2024-01-16T08:54:45.746Z,69
2024-01-16T08:55:46.883Z,69
2024-01-16T08:56:48.196Z,68.9
2024-01-16T08:57:49.384Z,68.9
2024-01-16T08:58:50.549Z,68.8
2024-01-16T08:59:51.863Z,68.7
2024-01-16T09:00:53.138Z,68.7
2024-01-16T09:01:54.275Z,68.6
2024-01-16T09:02:55.586Z,68.6
2024-01-16T09:03:56.882Z,68.5
2024-01-16T09:04:58.243Z,68.5
2024-01-16T09:06:00.092Z,68.4
2024-01-16T09:07:01.918Z,68.4
2024-01-16T09:08:03.255Z,68.3
2024-01-16T09:09:04.447Z,68.3
2024-01-16T09:10:05.610Z,68.2
2024-01-16T09:11:06.773Z,68.2
2024-01-16T09:12:07.944Z,68.1
2024-01-16T09:13:09.186Z,68
2024-01-16T09:14:10.523Z,67.9
2024-01-16T09:15:11.685Z,67.9
2024-01-16T09:16:12.879Z,67.8
2024-01-16T09:17:14.064Z,67.7
2024-01-16T09:18:15.514Z,67.7
2024-01-16T09:19:16.871Z,67.6
2024-01-16T09:20:18.152Z,67.5
2024-01-16T09:21:19.353Z,67.4
2024-01-16T09:22:20.498Z,67.3
2024-01-16T09:23:21.867Z,67.1
2024-01-16T09:24:23.056Z,67
2024-01-16T09:25:24.208Z,66.9
2024-01-16T09:26:25.542Z,66.8
2024-01-16T09:27:26.802Z,66.7
2024-01-16T09:28:27.975Z,66.6
2024-01-16T09:29:29.252Z,66.5
2024-01-16T09:30:30.448Z,66.4
2024-01-16T09:31:31.629Z,66.3
2024-01-16T09:32:32.950Z,66.2
2024-01-16T09:33:34.427Z,66.1
2024-01-16T09:34:35.689Z,66
2024-01-16T09:35:36.990Z,66
2024-01-16T09:36:38.551Z,65.9
2024-01-16T09:37:39.992Z,65.8
2024-01-16T09:38:41.474Z,65.8
2024-01-16T09:39:42.628Z,65.7
2024-01-16T09:40:43.811Z,65.6
2024-01-16T09:41:45.025Z,65.5
2024-01-16T09:42:46.166Z,65.4
2024-01-16T09:43:47.329Z,65.3
2024-01-16T09:44:48.665Z,65.2
2024-01-16T09:45:49.869Z,65.2
2024-01-16T09:46:51.223Z,65.1
2024-01-16T09:47:53.685Z,65
2024-01-16T09:48:55.332Z,64.9
2024-01-16T09:49:56.523Z,64.7
2024-01-16T09:50:58.070Z,64.6
2024-01-16T09:51:59.244Z,64.6
2024-01-16T09:53:01.157Z,64.5
2024-01-16T09:54:02.543Z,64.4
2024-01-16T09:55:03.808Z,64.3
2024-01-16T09:56:05.004Z,64.2
2024-01-16T09:57:06.176Z,64
2024-01-16T09:58:07.349Z,63.8
2024-01-16T09:59:08.508Z,63.8
2024-01-16T10:00:09.702Z,63.6
2024-01-16T10:01:10.940Z,63.4
2024-01-16T10:02:12.411Z,63.3
2024-01-16T10:03:13.611Z,63.2
2024-01-16T10:04:15.127Z,63.2
2024-01-16T10:05:16.761Z,63.1
2024-01-16T10:06:18.233Z,63
2024-01-16T10:07:19.399Z,62.9
2024-01-16T10:08:20.604Z,62.7
2024-01-16T10:09:21.741Z,62.6
2024-01-16T10:10:48.687Z,62.4
2024-01-16T10:11:51.580Z,62.2
2024-01-16T10:12:52.827Z,61.9
2024-01-16T10:13:53.989Z,61.8
2024-01-16T10:14:55.395Z,61.6
2024-01-16T10:15:56.750Z,61.5
2024-01-16T10:16:57.982Z,61.4
2024-01-16T10:17:59.332Z,61.2
2024-01-16T10:19:00.824Z,61
2024-01-16T10:20:02.181Z,60.8
2024-01-16T10:21:03.627Z,60.6
2024-01-16T10:22:04.882Z,60.3
2024-01-16T10:23:06.104Z,60.1
2024-01-16T10:24:07.275Z,59.7
2024-01-16T10:25:08.518Z,59.4
2024-01-16T10:26:09.767Z,59.2
2024-01-16T10:27:10.923Z,59.1
2024-01-16T10:28:12.087Z,58.9
2024-01-16T10:29:13.339Z,59
2024-01-16T10:30:15.541Z,58.7
2024-01-16T10:31:17.982Z,58.6
2024-01-16T10:32:19.704Z,58.4
2024-01-16T10:33:21.498Z,58.2
2024-01-16T10:34:23.271Z,57.9
2024-01-16T10:35:24.747Z,57.7
2024-01-16T10:36:25.931Z,57.4
2024-01-16T10:37:27.184Z,57.2
2024-01-16T10:38:28.429Z,56.9
2024-01-16T10:39:44.607Z,56.6
2024-01-16T10:40:45.801Z,56.2
2024-01-16T10:41:47.138Z,55.8
2024-01-16T10:42:48.349Z,55.7
2024-01-16T10:43:49.511Z,55.2
2024-01-16T10:44:50.908Z,54.8
2024-01-16T10:45:52.072Z,54.6
2024-01-16T10:46:53.247Z,54.5
2024-01-16T10:47:54.569Z,54.4
2024-01-16T10:48:56.046Z,53.9
2024-01-16T10:49:57.300Z,53.5
2024-01-16T10:50:58.540Z,52.9
2024-01-16T10:51:59.695Z,52.5
2024-01-16T10:53:00.871Z,52.1
2024-01-16T10:54:02.040Z,51.8
2024-01-16T10:55:03.205Z,51.6
2024-01-16T10:56:04.364Z,51.2
2024-01-16T10:57:05.539Z,50.9
2024-01-16T10:58:06.721Z,50.7
2024-01-16T10:59:07.888Z,50.4
2024-01-16T11:00:09.054Z,50
2024-01-16T11:01:10.271Z,49.7
2024-01-16T11:02:11.469Z,49.1
2024-01-16T11:03:12.646Z,49.4
2024-01-16T11:04:16.903Z,50.1
2024-01-16T11:05:18.194Z,49.5
2024-01-16T11:06:21.069Z,48.7
2024-01-16T11:07:22.298Z,48.6
2024-01-16T11:08:23.706Z,48.5
2024-01-16T11:09:24.870Z,48.2
2024-01-16T11:10:26.029Z,48.3
2024-01-16T11:11:27.259Z,49
2024-01-16T11:12:28.434Z,48
2024-01-16T11:13:29.586Z,48
2024-01-16T11:14:30.852Z,48
2024-01-16T11:15:32.001Z,47.9
2024-01-16T11:16:33.173Z,47.5
2024-01-16T11:17:34.474Z,47.1
2024-01-16T11:18:36.083Z,47.4
2024-01-16T11:20:22.026Z,46.7
2024-01-16T11:21:39.731Z,46.4
2024-01-16T11:22:41.349Z,46.4
2024-01-16T11:23:42.575Z,46.5
2024-01-16T11:24:43.724Z,46.4
2024-01-16T11:25:44.933Z,46.3
2024-01-16T11:26:46.222Z,46.3
2024-01-16T11:27:47.453Z,46.3
2024-01-16T11:28:48.622Z,46.4
2024-01-16T11:29:49.854Z,46.2
2024-01-16T11:30:51.071Z,46.3
2024-01-16T11:32:09.094Z,46.3
2024-01-16T11:33:20.112Z,46.2
2024-01-16T11:34:21.724Z,46.2
2024-01-16T11:35:23.069Z,46.2
2024-01-16T11:36:24.215Z,46.2
2024-01-16T11:37:25.386Z,46.2
2024-01-16T11:38:27.942Z,46.3
2024-01-16T11:39:29.154Z,46.3
2024-01-16T11:40:30.325Z,46.2
2024-01-16T11:41:43.556Z,46.3
2024-01-16T11:42:44.741Z,46.4
2024-01-16T11:43:45.906Z,46.3
2024-01-16T11:44:47.153Z,46.7
2024-01-16T11:45:48.287Z,45.9
2024-01-16T11:46:52.274Z,45.4
2024-01-16T11:47:53.893Z,45
2024-01-16T11:48:55.354Z,44.6
2024-01-16T11:49:56.571Z,44.4
2024-01-16T11:50:57.880Z,44.2
2024-01-16T11:51:59.041Z,44
2024-01-16T11:53:00.204Z,43.8
2024-01-16T11:54:01.456Z,43.5
2024-01-16T11:55:02.707Z,43.4
2024-01-16T11:56:03.885Z,43.2
2024-01-16T11:57:05.045Z,43
2024-01-16T11:58:06.218Z,42.8
2024-01-16T11:59:07.382Z,42.7
2024-01-16T12:00:08.539Z,42.5
2024-01-16T12:01:09.820Z,42.3
2024-01-16T12:02:11.024Z,42.1
2024-01-16T12:03:13.882Z,41.8
2024-01-16T12:04:17.235Z,41.7
2024-01-16T12:05:18.540Z,41.6
2024-01-16T12:06:20.225Z,41.4
2024-01-16T12:07:21.552Z,41.1
2024-01-16T12:08:22.804Z,41.1
2024-01-16T12:09:23.947Z,40.8
2024-01-16T12:10:25.153Z,40.8
2024-01-16T12:11:44.210Z,40.8
2024-01-16T12:12:45.402Z,41.1
2024-01-16T12:13:46.578Z,41.2
2024-01-16T12:14:47.844Z,41.4
2024-01-16T12:15:49.008Z,41.4
2024-01-16T12:16:50.184Z,41.4
2024-01-16T12:17:51.696Z,41.4
2024-01-16T12:18:53.253Z,41.4
2024-01-16T12:19:54.734Z,41.4
2024-01-16T12:20:56.007Z,41.4
2024-01-16T12:21:57.203Z,41.4
2024-01-16T12:22:58.443Z,41.4
2024-01-16T12:24:15.991Z,41.4
2024-01-16T12:25:19.683Z,41.4
2024-01-16T12:26:20.909Z,41.4
2024-01-16T12:27:22.066Z,41.4
2024-01-16T12:28:34.080Z,41.4
2024-01-16T12:29:35.564Z,41.4
2024-01-16T12:30:36.787Z,41.5
2024-01-16T12:31:37.917Z,41.5
2024-01-16T12:32:39.314Z,41.6
2024-01-16T12:33:58.459Z,41.6
2024-01-16T12:35:05.489Z,41.7
2024-01-16T12:36:07.823Z,41.8
2024-01-16T12:37:09.000Z,41.8
2024-01-16T12:38:10.154Z,41.9
2024-01-16T12:39:11.296Z,41.9
2024-01-16T12:40:12.481Z,42
2024-01-16T12:41:13.782Z,42.1
2024-01-16T12:42:15.275Z,42.2
2024-01-16T12:43:16.452Z,42.3
2024-01-16T12:44:19.193Z,42.4
2024-01-16T12:45:20.358Z,42.5
2024-01-16T12:46:21.522Z,42.6
2024-01-16T12:47:22.897Z,42.6
2024-01-16T12:48:24.272Z,42.7
2024-01-16T12:49:26.929Z,42.8
2024-01-16T12:50:28.436Z,42.9
2024-01-16T12:51:29.625Z,43
2024-01-16T12:52:30.807Z,43.1
2024-01-16T12:53:32.037Z,43.2
2024-01-16T12:54:33.358Z,43.4
2024-01-16T12:55:34.534Z,43.5
2024-01-16T12:56:39.733Z,43.7
2024-01-16T12:58:02.090Z,43.8
2024-01-16T12:59:09.078Z,44
2024-01-16T13:00:12.411Z,44.1
2024-01-16T13:01:25.366Z,44.3
2024-01-16T13:02:33.087Z,44.4
2024-01-16T13:03:34.431Z,44.5
2024-01-16T13:04:35.651Z,44.7
2024-01-16T13:05:37.100Z,44.8
2024-01-16T13:06:39.699Z,44.9
2024-01-16T13:07:41.240Z,45.1
2024-01-16T13:08:42.380Z,45.2
2024-01-16T13:09:43.541Z,45.3
2024-01-16T13:10:44.706Z,45.5
2024-01-16T13:11:45.906Z,45.6
2024-01-16T13:12:47.049Z,45.7
2024-01-16T13:13:48.220Z,45.9
2024-01-16T13:14:49.458Z,46
2024-01-16T13:15:50.600Z,46.1
2024-01-16T13:16:51.769Z,46.3
2024-01-16T13:17:53.108Z,46.4
2024-01-16T13:18:54.376Z,46.6
2024-01-16T13:19:55.577Z,46.7
2024-01-16T13:20:56.872Z,46.9
2024-01-16T13:21:58.028Z,47
2024-01-16T13:22:59.392Z,47.1
2024-01-16T13:24:00.516Z,47.3
2024-01-16T13:25:10.102Z,47.4
2024-01-16T13:26:11.271Z,47.6
2024-01-16T13:27:12.431Z,47.7
2024-01-16T13:28:13.593Z,47.8
2024-01-16T13:29:15.190Z,47.9
2024-01-16T13:30:16.505Z,48
2024-01-16T13:31:17.746Z,48.1
2024-01-16T13:32:19.157Z,48.2
2024-01-16T13:33:20.835Z,48.4
2024-01-16T13:34:27.644Z,48.5
2024-01-16T13:35:28.931Z,48.6
2024-01-16T13:37:16.049Z,48.8
2024-01-16T13:38:18.232Z,49
2024-01-16T13:39:19.384Z,49.1
2024-01-16T13:40:25.341Z,49.2
2024-01-16T13:41:26.864Z,49.4
2024-01-16T13:42:28.044Z,49.5
2024-01-16T13:43:29.252Z,49.6
2024-01-16T13:44:30.568Z,49.7
2024-01-16T13:45:31.736Z,49.8
2024-01-16T13:46:58.247Z,49.9
2024-01-16T13:48:07.569Z,50.1
2024-01-16T13:49:09.194Z,50.3
2024-01-16T13:50:10.499Z,50.4
2024-01-16T13:51:11.660Z,50.5
2024-01-16T13:52:12.847Z,50.6
2024-01-16T13:53:14.198Z,50.7
2024-01-16T13:54:15.556Z,50.8
2024-01-16T13:55:16.685Z,50.9
2024-01-16T13:56:44.688Z,51
2024-01-16T13:57:54.102Z,51.2
2024-01-16T13:58:55.274Z,51.3
2024-01-16T13:59:56.728Z,51.4
2024-01-16T14:00:58.009Z,51.5
2024-01-16T14:01:59.153Z,51.7
2024-01-16T14:03:02.080Z,51.8
2024-01-16T14:04:03.483Z,51.9
2024-01-16T14:05:04.793Z,52
2024-01-16T14:06:06.357Z,52.1
2024-01-16T14:07:14.438Z,52.2
2024-01-16T14:08:15.790Z,52.3
2024-01-16T14:09:17.065Z,52.4
2024-01-16T14:10:18.347Z,52.5
2024-01-16T14:11:19.521Z,52.6
2024-01-16T14:12:20.686Z,52.7
2024-01-16T14:13:21.853Z,52.8
2024-01-16T14:14:23.077Z,52.9
2024-01-16T14:15:24.295Z,53
2024-01-16T14:16:51.155Z,53.1
2024-01-16T14:17:56.704Z,53.2
2024-01-16T14:18:58.484Z,53.3
2024-01-16T14:19:59.717Z,53.4
2024-01-16T14:21:01.292Z,53.5
2024-01-16T14:22:02.476Z,53.6
2024-01-16T14:23:03.639Z,53.7
2024-01-16T14:24:04.810Z,53.8
2024-01-16T14:25:06.058Z,53.9
2024-01-16T14:26:07.360Z,53.9
2024-01-16T14:27:08.985Z,54
2024-01-16T14:28:29.763Z,54.1
2024-01-16T14:29:31.720Z,54.2
2024-01-16T14:30:33.019Z,54.3
2024-01-16T14:31:34.180Z,54.4
2024-01-16T14:32:35.686Z,54.5